• Join FlightAware (Why Join?)
  • Login
  • US Flag 
11:45AM EST


 

Airport Tracker/Info


-or-


 

Live Flight TrackerFlight Track Log ✈ ASQ5773 ✈ 07-May-2013 ✈ KROC - KIAD

Flight Track Log - Related Links

Times and Time Zones

All times are in EDT time to prevent confusion due to time zone crossing. See the ASQ5773 flight status page for this flight to view local times or setup timezone preferences in your user account.

Time Position Orientation Groundspeed Altitude Reporting Facility
EDT Latitude Longitude Course Direction KTS MPH feet Rate Location/Type
03:46PM 43.1478 -77.7119 310° West 221 254 2,500  Level Cleveland Center
03:46PM 43.1381 -77.7353 240° Southwest 219 252 3,500 2,556 Climbing Cleveland Center
03:46PM 43.1097 -77.7736 225° Southwest 261 300 4,800 2,300 Climbing Cleveland Center
03:47PM 43.0828 -77.7833 195° South 258 297 5,800 2,780 Climbing Cleveland Center
03:48PM 42.7256 -77.7475 192° South  Level FlightAware Approximate
03:48PM 43.0075 -77.7725 174° South 270 311 8,600  Level Cleveland Center
03:49PM 42.6284 -77.7765 192° South  Level FlightAware Approximate
03:49PM 42.9322 -77.7558 171° South 270 311 11,200  Level Cleveland Center
03:50PM 42.5308 -77.8007 191° South  Level FlightAware Approximate
03:50PM 42.8442 -77.7372 171° South 287 330 12,700  Level Cleveland Center
03:51PM 42.7486 -77.7558 188° South 324 373 13,900 1,350 Climbing Cleveland Center
03:52PM 42.6450 -77.7831 191° South 361 415 15,400 1,500 Climbing Cleveland Center
03:53PM 42.5394 -77.8103 191° South 384 442 16,900 1,400 Climbing Cleveland Center
03:54PM 42.4464 -77.8369 192° South 389 448 18,200 1,400 Climbing Cleveland Center
03:55PM 42.3425 -77.8611 190° South 394 453 19,700 1,250 Climbing Cleveland Center
03:56PM 42.2350 -77.8881 191° South 388 447 20,700 750 Climbing Cleveland Center
03:57PM 42.1269 -77.9150 190° South 393 452 21,200 500 Climbing Cleveland Center
03:58PM 42.0131 -77.9450 191° South 404 465 21,700 500 Climbing Cleveland Center
03:59PM 41.8806 -77.9783 191° South 418 481 22,200 513 Climbing Cleveland Center
04:00PM 41.7761 -78.0056 191° South 431 496 22,700 407 Climbing New York Center
04:01PM 41.6717 -77.9747 168° South 425 489 23,000 151 Climbing New York Center
04:02PM 41.5556 -77.9317 164° South 425 489 23,000  Level New York Center
04:03PM 41.4353 -77.8858 164° South 436 502 23,000  Level New York Center
04:04PM 41.3153 -77.8372 163° South 448 516 23,000  Level New York Center
04:05PM 41.1950 -77.7917 164° South 448 516 23,000  Level New York Center
04:06PM 41.0789 -77.7464 164° South 448 516 23,000  Level New York Center
04:07PM 40.9628 -77.7017 164° South 448 516 23,000 -252 Level New York Center
04:08PM 40.8444 -77.6567 164° South 448 516 22,500 -1,240 Descending New York Center
04:09PM 40.7303 -77.6150 165° South 443 510 20,500 -2,118 Descending New York Center
04:10PM 40.6036 -77.5697 165° South 433 498 18,300 -1,271 Descending New York Center
04:11PM 40.5017 -77.5294 163° South 403 464 18,000 -149 Descending New York Center
04:12PM 40.3997 -77.4894 163° South 391 450 18,000  Level New York Center
04:13PM 40.2933 -77.4519 165° South 391 450 18,000 -101 Level New York Center
04:14PM 40.1892 -77.4119 164° South 391 450 17,800 -1,109 Descending New York Center
04:15PM 40.0789 -77.3717 164° South 401 461 15,800 -1,427 Descending New York Center
04:17PM 39.8500 -77.2833 163° South 377 434 12,900 -844 Descending Potomac TRACON
04:18PM 39.7667 -77.2500 163° South 351 404 13,000 -248 Climbing Potomac TRACON
04:19PM 39.6833 -77.2500 180° South 305 351 12,400 -1,370 Descending Potomac TRACON
04:20PM 39.6167 -77.3333 224° Southwest 302 348 10,100 -1,474 Descending Potomac TRACON
04:21PM 39.5667 -77.3833 218° Southwest 251 289 9,600 -1,304 Descending Potomac TRACON
04:22PM 39.5000 -77.4333 210° Southwest 241 277 7,600 -1,785 Descending Potomac TRACON
04:23PM 39.4500 -77.4667 207° Southwest 211 243 6,000 -800 Descending Potomac TRACON
04:24PM 39.3833 -77.4667 180° South 217 250 6,000 -450 Level Potomac TRACON
04:25PM 39.3333 -77.4667 180° South 209 241 5,100 -496 Descending Potomac TRACON
04:26PM 39.2833 -77.4667 180° South 202 232 5,000 -50 Descending Potomac TRACON
04:27PM 39.2167 -77.4667 180° South 207 238 5,000 -500 Level Potomac TRACON
04:28PM 39.1667 -77.4667 180° South 203 234 4,000 -1,050 Descending Potomac TRACON
04:29PM 39.1000 -77.4667 180° South 201 231 2,900 -1,053 Descending Potomac TRACON
04:30PM 39.0500 -77.4667 180° South 184 212 2,000 -939 Descending Potomac TRACON
04:31PM 39.0000 -77.4667 180° South 175 201 1,100 -885 Descending Potomac TRACON
04:33PM 38.9474 -77.4599 174° South  Level Estimated
04:40PM 38.9474 -77.4599 174° South  Level Estimated